sensor_id;sensor_type;location;lat;lon;timestamp;P1;durP1;ratioP1;P2;durP2;ratioP2
3257;SDS011;1641;51.306;12.384;2022-12-20T00:00:43;16.38;;;8.63;;
3257;SDS011;1641;51.306;12.384;2022-12-20T00:03:09;13.02;;;8.43;;
3257;SDS011;1641;51.306;12.384;2022-12-20T00:05:39;16.08;;;9.38;;
3257;SDS011;1641;51.306;12.384;2022-12-20T00:08:06;15.50;;;8.50;;
3257;SDS011;1641;51.306;12.384;2022-12-20T00:10:39;14.80;;;9.48;;
3257;SDS011;1641;51.306;12.384;2022-12-20T00:13:08;16.60;;;9.25;;
3257;SDS011;1641;51.306;12.384;2022-12-20T00:15:34;13.25;;;8.43;;
3257;SDS011;1641;51.306;12.384;2022-12-20T00:18:02;17.80;;;9.38;;
3257;SDS011;1641;51.306;12.384;2022-12-20T00:20:28;16.35;;;10.07;;
3257;SDS011;1641;51.306;12.384;2022-12-20T00:22:53;17.98;;;9.35;;
3257;SDS011;1641;51.306;12.384;2022-12-20T00:25:19;18.73;;;7.85;;
3257;SDS011;1641;51.306;12.384;2022-12-20T00:27:45;18.25;;;9.23;;
3257;SDS011;1641;51.306;12.384;2022-12-20T00:30:11;13.32;;;8.38;;
3257;SDS011;1641;51.306;12.384;2022-12-20T00:32:36;16.10;;;9.77;;
3257;SDS011;1641;51.306;12.384;2022-12-20T00:35:02;13.77;;;8.60;;
3257;SDS011;1641;51.306;12.384;2022-12-20T00:37:27;14.88;;;9.45;;
3257;SDS011;1641;51.306;12.384;2022-12-20T00:39:59;15.32;;;9.40;;
3257;SDS011;1641;51.306;12.384;2022-12-20T00:42:24;18.10;;;9.95;;
3257;SDS011;1641;51.306;12.384;2022-12-20T00:44:50;18.48;;;9.82;;
3257;SDS011;1641;51.306;12.384;2022-12-20T00:47:15;16.85;;;10.30;;
3257;SDS011;1641;51.306;12.384;2022-12-20T00:49:46;15.93;;;9.60;;
3257;SDS011;1641;51.306;12.384;2022-12-20T00:52:11;15.55;;;9.88;;
3257;SDS011;1641;51.306;12.384;2022-12-20T00:54:37;14.35;;;8.65;;
3257;SDS011;1641;51.306;12.384;2022-12-20T00:57:02;21.70;;;10.27;;
3257;SDS011;1641;51.306;12.384;2022-12-20T00:59:27;18.25;;;10.43;;
3257;SDS011;1641;51.306;12.384;2022-12-20T01:01:53;14.95;;;8.60;;
3257;SDS011;1641;51.306;12.384;2022-12-20T01:04:18;17.05;;;9.35;;
3257;SDS011;1641;51.306;12.384;2022-12-20T01:06:43;16.50;;;9.10;;
3257;SDS011;1641;51.306;12.384;2022-12-20T01:09:09;13.80;;;8.93;;
3257;SDS011;1641;51.306;12.384;2022-12-20T01:11:38;17.25;;;8.65;;
3257;SDS011;1641;51.306;12.384;2022-12-20T01:14:06;18.50;;;10.75;;
3257;SDS011;1641;51.306;12.384;2022-12-20T01:16:40;18.67;;;10.02;;
3257;SDS011;1641;51.306;12.384;2022-12-20T01:19:11;17.83;;;10.27;;
3257;SDS011;1641;51.306;12.384;2022-12-20T01:21:38;20.02;;;10.38;;
3257;SDS011;1641;51.306;12.384;2022-12-20T01:24:15;18.25;;;10.48;;
3257;SDS011;1641;51.306;12.384;2022-12-20T01:26:42;19.38;;;9.40;;
3257;SDS011;1641;51.306;12.384;2022-12-20T01:29:08;20.80;;;10.18;;
3257;SDS011;1641;51.306;12.384;2022-12-20T01:31:34;18.35;;;10.15;;
3257;SDS011;1641;51.306;12.384;2022-12-20T01:33:59;14.90;;;9.43;;
3257;SDS011;1641;51.306;12.384;2022-12-20T01:36:26;19.83;;;9.85;;
3257;SDS011;1641;51.306;12.384;2022-12-20T01:39:04;18.27;;;10.65;;
3257;SDS011;1641;51.306;12.384;2022-12-20T01:41:32;16.60;;;8.32;;
3257;SDS011;1641;51.306;12.384;2022-12-20T01:43:59;16.00;;;10.20;;
3257;SDS011;1641;51.306;12.384;2022-12-20T01:46:27;18.00;;;10.98;;
3257;SDS011;1641;51.306;12.384;2022-12-20T01:49:41;16.15;;;9.82;;
3257;SDS011;1641;51.306;12.384;2022-12-20T01:51:46;16.42;;;9.95;;
3257;SDS011;1641;51.306;12.384;2022-12-20T01:54:21;14.95;;;9.93;;
3257;SDS011;1641;51.306;12.384;2022-12-20T01:56:51;14.35;;;9.80;;
3257;SDS011;1641;51.306;12.384;2022-12-20T02:01:46;17.52;;;9.38;;
3257;SDS011;1641;51.306;12.384;2022-12-20T02:04:12;14.82;;;8.48;;
3257;SDS011;1641;51.306;12.384;2022-12-20T02:06:37;15.68;;;9.20;;
3257;SDS011;1641;51.306;12.384;2022-12-20T02:09:04;17.58;;;9.80;;
3257;SDS011;1641;51.306;12.384;2022-12-20T02:14:54;15.52;;;9.57;;
3257;SDS011;1641;51.306;12.384;2022-12-20T02:17:47;18.38;;;9.10;;
3257;SDS011;1641;51.306;12.384;2022-12-20T02:20:48;18.60;;;9.75;;
3257;SDS011;1641;51.306;12.384;2022-12-20T02:23:36;19.25;;;10.25;;
3257;SDS011;1641;51.306;12.384;2022-12-20T02:26:17;14.93;;;9.27;;
3257;SDS011;1641;51.306;12.384;2022-12-20T02:34:50;15.02;;;9.27;;
3257;SDS011;1641;51.306;12.384;2022-12-20T02:37:16;16.85;;;10.20;;
3257;SDS011;1641;51.306;12.384;2022-12-20T02:39:41;14.75;;;9.85;;
3257;SDS011;1641;51.306;12.384;2022-12-20T02:42:10;15.40;;;9.68;;
3257;SDS011;1641;51.306;12.384;2022-12-20T02:44:42;16.00;;;9.25;;
3257;SDS011;1641;51.306;12.384;2022-12-20T02:47:34;18.73;;;9.68;;
3257;SDS011;1641;51.306;12.384;2022-12-20T02:50:33;17.70;;;10.82;;
3257;SDS011;1641;51.306;12.384;2022-12-20T02:53:02;24.60;;;10.90;;
3257;SDS011;1641;51.306;12.384;2022-12-20T02:58:36;19.65;;;10.40;;
3257;SDS011;1641;51.306;12.384;2022-12-20T03:01:15;17.48;;;10.38;;
3257;SDS011;1641;51.306;12.384;2022-12-20T03:03:44;17.58;;;10.15;;
3257;SDS011;1641;51.306;12.384;2022-12-20T03:06:10;17.48;;;11.13;;
3257;SDS011;1641;51.306;12.384;2022-12-20T03:08:35;21.20;;;10.80;;
3257;SDS011;1641;51.306;12.384;2022-12-20T03:11:01;18.48;;;11.30;;
3257;SDS011;1641;51.306;12.384;2022-12-20T03:13:26;20.90;;;11.05;;
3257;SDS011;1641;51.306;12.384;2022-12-20T03:15:51;21.40;;;11.13;;
3257;SDS011;1641;51.306;12.384;2022-12-20T03:18:17;18.45;;;10.25;;
3257;SDS011;1641;51.306;12.384;2022-12-20T03:20:42;22.40;;;10.77;;
3257;SDS011;1641;51.306;12.384;2022-12-20T03:23:08;19.40;;;10.68;;
3257;SDS011;1641;51.306;12.384;2022-12-20T03:25:33;36.90;;;11.98;;
3257;SDS011;1641;51.306;12.384;2022-12-20T03:27:58;19.55;;;11.02;;
3257;SDS011;1641;51.306;12.384;2022-12-20T03:30:24;18.23;;;11.20;;
3257;SDS011;1641;51.306;12.384;2022-12-20T03:32:49;20.20;;;10.43;;
3257;SDS011;1641;51.306;12.384;2022-12-20T03:35:14;20.27;;;11.48;;
3257;SDS011;1641;51.306;12.384;2022-12-20T03:37:40;20.25;;;11.48;;
3257;SDS011;1641;51.306;12.384;2022-12-20T03:40:06;21.20;;;12.55;;
3257;SDS011;1641;51.306;12.384;2022-12-20T03:42:33;21.77;;;11.48;;
3257;SDS011;1641;51.306;12.384;2022-12-20T03:45:16;20.85;;;12.13;;
3257;SDS011;1641;51.306;12.384;2022-12-20T03:47:41;21.45;;;11.98;;
3257;SDS011;1641;51.306;12.384;2022-12-20T03:50:07;20.98;;;12.65;;
3257;SDS011;1641;51.306;12.384;2022-12-20T03:52:32;24.23;;;12.50;;
3257;SDS011;1641;51.306;12.384;2022-12-20T03:54:58;22.92;;;12.95;;
3257;SDS011;1641;51.306;12.384;2022-12-20T03:57:24;23.42;;;12.90;;
3257;SDS011;1641;51.306;12.384;2022-12-20T03:59:49;21.60;;;12.55;;
3257;SDS011;1641;51.306;12.384;2022-12-20T04:02:15;20.05;;;11.43;;
3257;SDS011;1641;51.306;12.384;2022-12-20T04:04:40;22.27;;;12.57;;
3257;SDS011;1641;51.306;12.384;2022-12-20T04:07:05;24.33;;;12.65;;
3257;SDS011;1641;51.306;12.384;2022-12-20T04:09:31;26.17;;;14.25;;
3257;SDS011;1641;51.306;12.384;2022-12-20T04:11:56;19.40;;;11.77;;
3257;SDS011;1641;51.306;12.384;2022-12-20T04:14:22;23.48;;;13.15;;
3257;SDS011;1641;51.306;12.384;2022-12-20T04:16:47;20.90;;;13.27;;
3257;SDS011;1641;51.306;12.384;2022-12-20T04:19:13;25.30;;;13.38;;
3257;SDS011;1641;51.306;12.384;2022-12-20T04:21:38;22.27;;;12.20;;
3257;SDS011;1641;51.306;12.384;2022-12-20T04:24:04;23.88;;;12.77;;
3257;SDS011;1641;51.306;12.384;2022-12-20T04:26:30;21.08;;;12.27;;
3257;SDS011;1641;51.306;12.384;2022-12-20T04:28:56;25.73;;;13.40;;
3257;SDS011;1641;51.306;12.384;2022-12-20T04:31:22;26.40;;;14.05;;
3257;SDS011;1641;51.306;12.384;2022-12-20T04:33:47;25.27;;;12.95;;
3257;SDS011;1641;51.306;12.384;2022-12-20T04:36:13;22.80;;;13.35;;
3257;SDS011;1641;51.306;12.384;2022-12-20T04:38:39;25.23;;;13.85;;
3257;SDS011;1641;51.306;12.384;2022-12-20T04:41:05;23.45;;;12.48;;
3257;SDS011;1641;51.306;12.384;2022-12-20T04:43:30;22.27;;;12.65;;
3257;SDS011;1641;51.306;12.384;2022-12-20T04:45:55;20.92;;;13.52;;
3257;SDS011;1641;51.306;12.384;2022-12-20T04:48:21;21.65;;;12.65;;
3257;SDS011;1641;51.306;12.384;2022-12-20T04:50:54;23.20;;;12.82;;
3257;SDS011;1641;51.306;12.384;2022-12-20T04:53:20;20.85;;;12.27;;
3257;SDS011;1641;51.306;12.384;2022-12-20T04:56:05;22.30;;;13.10;;
3257;SDS011;1641;51.306;12.384;2022-12-20T04:58:31;20.40;;;12.50;;
3257;SDS011;1641;51.306;12.384;2022-12-20T05:00:57;23.50;;;12.50;;
3257;SDS011;1641;51.306;12.384;2022-12-20T05:03:23;25.92;;;12.30;;
3257;SDS011;1641;51.306;12.384;2022-12-20T05:05:49;28.17;;;14.27;;
3257;SDS011;1641;51.306;12.384;2022-12-20T05:08:15;23.98;;;11.88;;
3257;SDS011;1641;51.306;12.384;2022-12-20T05:10:40;20.58;;;12.80;;
3257;SDS011;1641;51.306;12.384;2022-12-20T05:13:08;20.85;;;11.25;;
3257;SDS011;1641;51.306;12.384;2022-12-20T05:15:34;20.27;;;11.98;;
3257;SDS011;1641;51.306;12.384;2022-12-20T05:18:00;22.15;;;12.05;;
3257;SDS011;1641;51.306;12.384;2022-12-20T05:20:25;18.20;;;11.50;;
3257;SDS011;1641;51.306;12.384;2022-12-20T05:22:55;16.15;;;10.63;;
3257;SDS011;1641;51.306;12.384;2022-12-20T05:25:44;18.55;;;10.60;;
3257;SDS011;1641;51.306;12.384;2022-12-20T05:28:32;16.35;;;11.23;;
3257;SDS011;1641;51.306;12.384;2022-12-20T05:30:58;25.67;;;11.93;;
3257;SDS011;1641;51.306;12.384;2022-12-20T05:33:24;23.27;;;12.07;;
3257;SDS011;1641;51.306;12.384;2022-12-20T05:35:49;23.25;;;12.70;;
3257;SDS011;1641;51.306;12.384;2022-12-20T05:38:14;16.55;;;11.15;;
3257;SDS011;1641;51.306;12.384;2022-12-20T05:40:40;22.95;;;11.55;;
3257;SDS011;1641;51.306;12.384;2022-12-20T05:43:06;22.48;;;12.00;;
3257;SDS011;1641;51.306;12.384;2022-12-20T05:45:32;18.33;;;11.35;;
3257;SDS011;1641;51.306;12.384;2022-12-20T05:47:57;20.77;;;12.30;;
3257;SDS011;1641;51.306;12.384;2022-12-20T05:50:23;17.80;;;11.18;;
3257;SDS011;1641;51.306;12.384;2022-12-20T05:52:48;18.23;;;11.10;;
3257;SDS011;1641;51.306;12.384;2022-12-20T05:55:17;17.40;;;10.90;;
3257;SDS011;1641;51.306;12.384;2022-12-20T05:57:42;19.70;;;11.63;;
3257;SDS011;1641;51.306;12.384;2022-12-20T06:00:07;24.17;;;12.38;;
3257;SDS011;1641;51.306;12.384;2022-12-20T06:02:37;33.45;;;15.93;;
3257;SDS011;1641;51.306;12.384;2022-12-20T06:05:03;20.25;;;11.00;;
3257;SDS011;1641;51.306;12.384;2022-12-20T06:07:28;22.05;;;12.07;;
3257;SDS011;1641;51.306;12.384;2022-12-20T06:09:54;22.02;;;11.82;;
3257;SDS011;1641;51.306;12.384;2022-12-20T06:12:20;15.70;;;11.02;;
3257;SDS011;1641;51.306;12.384;2022-12-20T06:14:45;18.10;;;9.60;;
3257;SDS011;1641;51.306;12.384;2022-12-20T06:17:11;18.42;;;11.15;;
3257;SDS011;1641;51.306;12.384;2022-12-20T06:19:36;20.40;;;11.45;;
3257;SDS011;1641;51.306;12.384;2022-12-20T06:22:05;18.15;;;11.38;;
3257;SDS011;1641;51.306;12.384;2022-12-20T06:24:31;25.55;;;11.60;;
3257;SDS011;1641;51.306;12.384;2022-12-20T06:27:00;22.58;;;12.60;;
3257;SDS011;1641;51.306;12.384;2022-12-20T06:29:26;24.33;;;14.25;;
3257;SDS011;1641;51.306;12.384;2022-12-20T06:31:51;22.55;;;10.88;;
3257;SDS011;1641;51.306;12.384;2022-12-20T06:34:16;21.33;;;13.05;;
3257;SDS011;1641;51.306;12.384;2022-12-20T06:36:42;18.52;;;11.35;;
3257;SDS011;1641;51.306;12.384;2022-12-20T06:39:08;24.25;;;12.80;;
3257;SDS011;1641;51.306;12.384;2022-12-20T06:41:34;20.65;;;12.55;;
3257;SDS011;1641;51.306;12.384;2022-12-20T06:44:00;20.08;;;11.48;;
3257;SDS011;1641;51.306;12.384;2022-12-20T06:46:25;24.77;;;13.80;;
3257;SDS011;1641;51.306;12.384;2022-12-20T06:48:51;24.65;;;12.45;;
3257;SDS011;1641;51.306;12.384;2022-12-20T06:51:17;16.92;;;10.93;;
3257;SDS011;1641;51.306;12.384;2022-12-20T06:53:42;18.55;;;11.18;;
3257;SDS011;1641;51.306;12.384;2022-12-20T06:56:07;21.98;;;12.23;;
3257;SDS011;1641;51.306;12.384;2022-12-20T06:58:33;26.13;;;13.32;;
3257;SDS011;1641;51.306;12.384;2022-12-20T07:00:58;18.08;;;10.75;;
3257;SDS011;1641;51.306;12.384;2022-12-20T07:03:24;22.35;;;10.10;;
3257;SDS011;1641;51.306;12.384;2022-12-20T07:05:50;27.13;;;13.68;;
3257;SDS011;1641;51.306;12.384;2022-12-20T07:08:17;21.60;;;13.00;;
3257;SDS011;1641;51.306;12.384;2022-12-20T07:10:43;20.20;;;11.15;;
3257;SDS011;1641;51.306;12.384;2022-12-20T07:13:11;16.92;;;10.10;;
3257;SDS011;1641;51.306;12.384;2022-12-20T07:15:37;29.52;;;16.90;;
3257;SDS011;1641;51.306;12.384;2022-12-20T07:18:02;21.05;;;12.38;;
3257;SDS011;1641;51.306;12.384;2022-12-20T07:20:36;18.83;;;10.68;;
3257;SDS011;1641;51.306;12.384;2022-12-20T07:23:02;21.63;;;11.93;;
3257;SDS011;1641;51.306;12.384;2022-12-20T07:25:27;23.52;;;13.05;;
3257;SDS011;1641;51.306;12.384;2022-12-20T07:27:53;21.92;;;12.73;;
3257;SDS011;1641;51.306;12.384;2022-12-20T07:30:19;23.73;;;12.50;;
3257;SDS011;1641;51.306;12.384;2022-12-20T07:32:45;19.58;;;11.20;;
3257;SDS011;1641;51.306;12.384;2022-12-20T07:35:11;18.42;;;11.52;;
3257;SDS011;1641;51.306;12.384;2022-12-20T07:37:37;24.02;;;12.00;;
3257;SDS011;1641;51.306;12.384;2022-12-20T07:40:06;21.50;;;12.05;;
3257;SDS011;1641;51.306;12.384;2022-12-20T07:42:32;19.98;;;12.50;;
3257;SDS011;1641;51.306;12.384;2022-12-20T07:44:58;19.35;;;12.77;;
3257;SDS011;1641;51.306;12.384;2022-12-20T07:47:24;17.25;;;11.13;;
3257;SDS011;1641;51.306;12.384;2022-12-20T07:49:49;21.92;;;12.98;;
3257;SDS011;1641;51.306;12.384;2022-12-20T07:52:14;22.55;;;12.80;;
3257;SDS011;1641;51.306;12.384;2022-12-20T07:54:43;18.40;;;12.20;;
3257;SDS011;1641;51.306;12.384;2022-12-20T07:57:15;26.42;;;15.88;;
3257;SDS011;1641;51.306;12.384;2022-12-20T08:00:02;23.98;;;13.68;;
3257;SDS011;1641;51.306;12.384;2022-12-20T08:02:34;21.95;;;12.02;;
3257;SDS011;1641;51.306;12.384;2022-12-20T08:05:04;19.52;;;12.85;;
3257;SDS011;1641;51.306;12.384;2022-12-20T08:07:31;24.38;;;14.52;;
3257;SDS011;1641;51.306;12.384;2022-12-20T08:09:57;25.00;;;13.70;;
3257;SDS011;1641;51.306;12.384;2022-12-20T08:12:22;20.40;;;12.30;;
3257;SDS011;1641;51.306;12.384;2022-12-20T08:14:49;21.00;;;12.20;;
3257;SDS011;1641;51.306;12.384;2022-12-20T08:17:19;26.20;;;15.13;;
3257;SDS011;1641;51.306;12.384;2022-12-20T08:19:45;21.95;;;12.93;;
3257;SDS011;1641;51.306;12.384;2022-12-20T08:22:11;22.08;;;14.25;;
3257;SDS011;1641;51.306;12.384;2022-12-20T08:24:36;25.77;;;13.50;;
3257;SDS011;1641;51.306;12.384;2022-12-20T08:27:02;22.45;;;12.32;;
3257;SDS011;1641;51.306;12.384;2022-12-20T08:29:27;20.63;;;12.70;;
3257;SDS011;1641;51.306;12.384;2022-12-20T08:31:52;19.42;;;11.77;;
3257;SDS011;1641;51.306;12.384;2022-12-20T08:34:17;20.40;;;12.50;;
3257;SDS011;1641;51.306;12.384;2022-12-20T08:36:43;21.23;;;11.80;;
3257;SDS011;1641;51.306;12.384;2022-12-20T08:39:08;22.95;;;13.35;;
3257;SDS011;1641;51.306;12.384;2022-12-20T08:41:35;18.63;;;12.10;;
3257;SDS011;1641;51.306;12.384;2022-12-20T08:44:01;22.58;;;13.00;;
3257;SDS011;1641;51.306;12.384;2022-12-20T08:46:28;22.65;;;13.02;;
3257;SDS011;1641;51.306;12.384;2022-12-20T08:48:53;16.30;;;9.77;;
3257;SDS011;1641;51.306;12.384;2022-12-20T08:51:18;24.35;;;14.18;;
3257;SDS011;1641;51.306;12.384;2022-12-20T08:53:43;22.58;;;14.23;;
3257;SDS011;1641;51.306;12.384;2022-12-20T08:56:10;29.58;;;17.92;;
3257;SDS011;1641;51.306;12.384;2022-12-20T08:58:37;28.75;;;16.65;;
3257;SDS011;1641;51.306;12.384;2022-12-20T09:01:04;26.95;;;16.50;;
3257;SDS011;1641;51.306;12.384;2022-12-20T09:03:32;26.13;;;13.88;;
3257;SDS011;1641;51.306;12.384;2022-12-20T09:05:58;23.63;;;13.75;;
3257;SDS011;1641;51.306;12.384;2022-12-20T09:08:24;29.05;;;16.35;;
3257;SDS011;1641;51.306;12.384;2022-12-20T09:10:50;22.00;;;13.23;;
3257;SDS011;1641;51.306;12.384;2022-12-20T09:13:15;28.45;;;17.80;;
3257;SDS011;1641;51.306;12.384;2022-12-20T09:15:41;24.60;;;14.18;;
3257;SDS011;1641;51.306;12.384;2022-12-20T09:18:07;23.20;;;13.68;;
3257;SDS011;1641;51.306;12.384;2022-12-20T09:20:32;17.48;;;11.73;;
3257;SDS011;1641;51.306;12.384;2022-12-20T09:22:58;22.55;;;12.98;;
3257;SDS011;1641;51.306;12.384;2022-12-20T09:25:24;30.63;;;18.20;;
3257;SDS011;1641;51.306;12.384;2022-12-20T09:27:50;35.08;;;23.17;;
3257;SDS011;1641;51.306;12.384;2022-12-20T09:30:16;28.15;;;16.33;;
3257;SDS011;1641;51.306;12.384;2022-12-20T09:32:42;28.95;;;15.63;;
3257;SDS011;1641;51.306;12.384;2022-12-20T09:35:07;21.15;;;12.18;;
3257;SDS011;1641;51.306;12.384;2022-12-20T09:37:32;15.32;;;10.50;;
3257;SDS011;1641;51.306;12.384;2022-12-20T09:39:58;18.75;;;11.90;;
3257;SDS011;1641;51.306;12.384;2022-12-20T09:42:24;21.10;;;12.95;;
3257;SDS011;1641;51.306;12.384;2022-12-20T09:44:52;25.35;;;13.43;;
3257;SDS011;1641;51.306;12.384;2022-12-20T09:47:25;18.70;;;10.88;;
3257;SDS011;1641;51.306;12.384;2022-12-20T09:49:52;24.75;;;13.55;;
3257;SDS011;1641;51.306;12.384;2022-12-20T09:55:21;22.13;;;12.90;;
3257;SDS011;1641;51.306;12.384;2022-12-20T09:58:29;23.63;;;12.80;;
3257;SDS011;1641;51.306;12.384;2022-12-20T10:01:16;19.23;;;12.52;;
3257;SDS011;1641;51.306;12.384;2022-12-20T10:03:45;16.33;;;11.30;;
3257;SDS011;1641;51.306;12.384;2022-12-20T10:06:20;19.55;;;10.75;;
3257;SDS011;1641;51.306;12.384;2022-12-20T10:08:57;22.52;;;11.40;;
3257;SDS011;1641;51.306;12.384;2022-12-20T10:11:32;15.48;;;9.30;;
3257;SDS011;1641;51.306;12.384;2022-12-20T10:14:23;16.33;;;10.05;;
3257;SDS011;1641;51.306;12.384;2022-12-20T10:17:03;14.23;;;10.02;;
3257;SDS011;1641;51.306;12.384;2022-12-20T10:24:35;15.60;;;9.13;;
3257;SDS011;1641;51.306;12.384;2022-12-20T10:27:18;12.90;;;9.68;;
3257;SDS011;1641;51.306;12.384;2022-12-20T10:29:45;17.00;;;9.82;;
3257;SDS011;1641;51.306;12.384;2022-12-20T10:32:12;15.98;;;8.85;;
3257;SDS011;1641;51.306;12.384;2022-12-20T10:34:45;18.75;;;10.15;;
3257;SDS011;1641;51.306;12.384;2022-12-20T10:37:16;14.45;;;9.93;;
3257;SDS011;1641;51.306;12.384;2022-12-20T10:39:42;14.82;;;9.10;;
3257;SDS011;1641;51.306;12.384;2022-12-20T10:44:58;16.40;;;8.98;;
3257;SDS011;1641;51.306;12.384;2022-12-20T10:47:40;17.70;;;8.98;;
3257;SDS011;1641;51.306;12.384;2022-12-20T10:50:08;13.40;;;7.70;;
3257;SDS011;1641;51.306;12.384;2022-12-20T10:52:40;12.45;;;9.20;;
3257;SDS011;1641;51.306;12.384;2022-12-20T10:55:51;11.32;;;8.40;;
3257;SDS011;1641;51.306;12.384;2022-12-20T10:58:11;15.07;;;8.90;;
3257;SDS011;1641;51.306;12.384;2022-12-20T11:00:37;13.63;;;8.32;;
3257;SDS011;1641;51.306;12.384;2022-12-20T11:03:09;19.60;;;10.60;;
3257;SDS011;1641;51.306;12.384;2022-12-20T11:05:52;12.90;;;8.95;;
3257;SDS011;1641;51.306;12.384;2022-12-20T11:08:23;13.25;;;8.52;;
3257;SDS011;1641;51.306;12.384;2022-12-20T11:11:00;16.98;;;9.00;;
3257;SDS011;1641;51.306;12.384;2022-12-20T11:13:36;13.35;;;9.23;;
3257;SDS011;1641;51.306;12.384;2022-12-20T11:16:01;14.15;;;8.35;;
3257;SDS011;1641;51.306;12.384;2022-12-20T11:20:59;12.38;;;7.90;;
3257;SDS011;1641;51.306;12.384;2022-12-20T11:23:39;14.57;;;8.68;;
3257;SDS011;1641;51.306;12.384;2022-12-20T11:35:05;13.02;;;9.00;;
3257;SDS011;1641;51.306;12.384;2022-12-20T11:43:16;14.63;;;9.73;;
3257;SDS011;1641;51.306;12.384;2022-12-20T11:46:20;15.73;;;9.55;;
3257;SDS011;1641;51.306;12.384;2022-12-20T11:51:44;15.07;;;10.02;;
3257;SDS011;1641;51.306;12.384;2022-12-20T11:54:16;17.50;;;9.07;;
3257;SDS011;1641;51.306;12.384;2022-12-20T11:56:45;17.02;;;11.35;;
3257;SDS011;1641;51.306;12.384;2022-12-20T12:02:13;26.30;;;14.90;;
3257;SDS011;1641;51.306;12.384;2022-12-20T12:04:55;15.75;;;9.98;;
3257;SDS011;1641;51.306;12.384;2022-12-20T12:07:28;16.17;;;9.65;;
3257;SDS011;1641;51.306;12.384;2022-12-20T12:09:58;12.40;;;7.15;;
3257;SDS011;1641;51.306;12.384;2022-12-20T12:12:28;16.67;;;9.65;;
3257;SDS011;1641;51.306;12.384;2022-12-20T12:17:45;17.63;;;9.90;;
3257;SDS011;1641;51.306;12.384;2022-12-20T12:20:31;16.40;;;10.27;;
3257;SDS011;1641;51.306;12.384;2022-12-20T12:23:18;15.00;;;9.15;;
3257;SDS011;1641;51.306;12.384;2022-12-20T12:26:09;14.05;;;9.13;;
3257;SDS011;1641;51.306;12.384;2022-12-20T12:28:42;13.77;;;9.27;;
3257;SDS011;1641;51.306;12.384;2022-12-20T12:31:16;11.75;;;7.53;;
3257;SDS011;1641;51.306;12.384;2022-12-20T12:34:01;12.77;;;9.20;;
3257;SDS011;1641;51.306;12.384;2022-12-20T12:47:56;17.00;;;10.07;;
3257;SDS011;1641;51.306;12.384;2022-12-20T12:50:28;17.58;;;9.35;;
3257;SDS011;1641;51.306;12.384;2022-12-20T12:53:35;14.50;;;8.55;;
3257;SDS011;1641;51.306;12.384;2022-12-20T13:01:51;14.25;;;9.27;;
3257;SDS011;1641;51.306;12.384;2022-12-20T13:11:59;16.00;;;9.27;;
3257;SDS011;1641;51.306;12.384;2022-12-20T13:20:16;17.60;;;9.35;;
3257;SDS011;1641;51.306;12.384;2022-12-20T13:25:31;14.23;;;8.57;;
3257;SDS011;1641;51.306;12.384;2022-12-20T13:33:39;12.82;;;8.38;;
3257;SDS011;1641;51.306;12.384;2022-12-20T13:43:47;11.68;;;8.02;;
3257;SDS011;1641;51.306;12.384;2022-12-20T13:49:14;19.10;;;10.43;;
3257;SDS011;1641;51.306;12.384;2022-12-20T13:54:42;15.45;;;9.05;;
3257;SDS011;1641;51.306;12.384;2022-12-20T13:57:43;15.82;;;9.05;;
3257;SDS011;1641;51.306;12.384;2022-12-20T14:00:24;18.45;;;9.60;;
3257;SDS011;1641;51.306;12.384;2022-12-20T14:02:50;17.42;;;9.35;;
3257;SDS011;1641;51.306;12.384;2022-12-20T14:05:21;13.93;;;9.15;;
3257;SDS011;1641;51.306;12.384;2022-12-20T14:08:02;21.67;;;11.98;;
3257;SDS011;1641;51.306;12.384;2022-12-20T14:10:31;16.40;;;9.57;;
3257;SDS011;1641;51.306;12.384;2022-12-20T14:12:57;15.48;;;9.93;;
3257;SDS011;1641;51.306;12.384;2022-12-20T14:15:30;23.75;;;12.25;;
3257;SDS011;1641;51.306;12.384;2022-12-20T14:21:05;19.02;;;9.98;;
3257;SDS011;1641;51.306;12.384;2022-12-20T14:23:37;16.60;;;9.98;;
3257;SDS011;1641;51.306;12.384;2022-12-20T14:26:10;16.45;;;9.70;;
3257;SDS011;1641;51.306;12.384;2022-12-20T14:39:52;23.75;;;12.57;;
3257;SDS011;1641;51.306;12.384;2022-12-20T14:42:38;15.50;;;9.02;;
3257;SDS011;1641;51.306;12.384;2022-12-20T14:47:47;19.08;;;10.15;;
3257;SDS011;1641;51.306;12.384;2022-12-20T14:50:19;27.77;;;15.40;;
3257;SDS011;1641;51.306;12.384;2022-12-20T14:52:48;23.50;;;12.30;;
3257;SDS011;1641;51.306;12.384;2022-12-20T14:55:15;16.95;;;9.48;;
3257;SDS011;1641;51.306;12.384;2022-12-20T14:57:44;32.33;;;18.75;;
3257;SDS011;1641;51.306;12.384;2022-12-20T15:00:14;29.52;;;16.88;;
3257;SDS011;1641;51.306;12.384;2022-12-20T15:02:49;21.67;;;11.68;;
3257;SDS011;1641;51.306;12.384;2022-12-20T15:08:16;21.05;;;10.43;;
3257;SDS011;1641;51.306;12.384;2022-12-20T15:13:20;22.52;;;9.98;;
3257;SDS011;1641;51.306;12.384;2022-12-20T15:15:49;17.45;;;11.35;;
3257;SDS011;1641;51.306;12.384;2022-12-20T15:18:17;19.50;;;11.52;;
3257;SDS011;1641;51.306;12.384;2022-12-20T15:20:44;16.90;;;9.88;;
3257;SDS011;1641;51.306;12.384;2022-12-20T15:23:16;20.98;;;12.13;;
3257;SDS011;1641;51.306;12.384;2022-12-20T15:25:46;19.83;;;13.40;;
3257;SDS011;1641;51.306;12.384;2022-12-20T15:28:13;16.20;;;10.70;;
3257;SDS011;1641;51.306;12.384;2022-12-20T15:30:40;20.13;;;12.30;;
3257;SDS011;1641;51.306;12.384;2022-12-20T15:33:05;19.33;;;11.38;;
3257;SDS011;1641;51.306;12.384;2022-12-20T15:35:31;18.65;;;10.63;;
3257;SDS011;1641;51.306;12.384;2022-12-20T15:37:57;19.17;;;10.18;;
3257;SDS011;1641;51.306;12.384;2022-12-20T15:40:25;18.90;;;10.73;;
3257;SDS011;1641;51.306;12.384;2022-12-20T15:42:53;16.30;;;11.75;;
3257;SDS011;1641;51.306;12.384;2022-12-20T15:45:19;14.85;;;9.48;;
3257;SDS011;1641;51.306;12.384;2022-12-20T15:47:47;19.55;;;12.65;;
3257;SDS011;1641;51.306;12.384;2022-12-20T15:50:13;16.70;;;9.57;;
3257;SDS011;1641;51.306;12.384;2022-12-20T15:52:38;12.93;;;8.90;;
3257;SDS011;1641;51.306;12.384;2022-12-20T15:55:03;15.30;;;10.10;;
3257;SDS011;1641;51.306;12.384;2022-12-20T15:57:31;15.73;;;10.15;;
3257;SDS011;1641;51.306;12.384;2022-12-20T15:59:56;20.45;;;11.70;;
3257;SDS011;1641;51.306;12.384;2022-12-20T16:02:22;17.77;;;10.18;;
3257;SDS011;1641;51.306;12.384;2022-12-20T16:04:49;24.20;;;13.02;;
3257;SDS011;1641;51.306;12.384;2022-12-20T16:07:15;18.83;;;12.18;;
3257;SDS011;1641;51.306;12.384;2022-12-20T16:09:43;19.50;;;10.63;;
3257;SDS011;1641;51.306;12.384;2022-12-20T16:12:15;21.83;;;12.63;;
3257;SDS011;1641;51.306;12.384;2022-12-20T16:14:42;19.05;;;10.82;;
3257;SDS011;1641;51.306;12.384;2022-12-20T16:17:11;20.15;;;10.93;;
3257;SDS011;1641;51.306;12.384;2022-12-20T16:19:38;19.13;;;10.15;;
3257;SDS011;1641;51.306;12.384;2022-12-20T16:22:09;18.80;;;10.73;;
3257;SDS011;1641;51.306;12.384;2022-12-20T16:24:39;16.67;;;9.70;;
3257;SDS011;1641;51.306;12.384;2022-12-20T16:27:08;16.67;;;10.07;;
3257;SDS011;1641;51.306;12.384;2022-12-20T16:29:33;18.40;;;10.82;;
3257;SDS011;1641;51.306;12.384;2022-12-20T16:31:58;19.63;;;10.88;;
3257;SDS011;1641;51.306;12.384;2022-12-20T16:34:24;17.80;;;10.32;;
3257;SDS011;1641;51.306;12.384;2022-12-20T16:36:52;20.38;;;10.02;;
3257;SDS011;1641;51.306;12.384;2022-12-20T16:39:18;24.30;;;13.00;;
3257;SDS011;1641;51.306;12.384;2022-12-20T16:41:43;21.20;;;11.52;;
3257;SDS011;1641;51.306;12.384;2022-12-20T16:44:12;17.90;;;9.23;;
3257;SDS011;1641;51.306;12.384;2022-12-20T16:46:42;23.70;;;9.95;;
3257;SDS011;1641;51.306;12.384;2022-12-20T16:49:08;17.15;;;9.65;;
3257;SDS011;1641;51.306;12.384;2022-12-20T16:51:44;14.85;;;9.65;;
3257;SDS011;1641;51.306;12.384;2022-12-20T16:54:12;16.20;;;9.90;;
3257;SDS011;1641;51.306;12.384;2022-12-20T16:56:42;17.70;;;10.77;;